sensor_id;sensor_type;location;lat;lon;timestamp;P1;durP1;ratioP1;P2;durP2;ratioP2
74793;SDS011;63320;50.768;6.724;2023-05-07T00:00:03;7.85;;;3.95;;
74793;SDS011;63320;50.768;6.724;2023-05-07T00:02:31;6.22;;;3.97;;
74793;SDS011;63320;50.768;6.724;2023-05-07T00:04:56;8.38;;;4.13;;
74793;SDS011;63320;50.768;6.724;2023-05-07T00:07:22;7.25;;;3.95;;
74793;SDS011;63320;50.768;6.724;2023-05-07T00:09:47;6.80;;;3.80;;
74793;SDS011;63320;50.768;6.724;2023-05-07T00:12:12;7.65;;;3.55;;
74793;SDS011;63320;50.768;6.724;2023-05-07T00:14:38;7.07;;;3.85;;
74793;SDS011;63320;50.768;6.724;2023-05-07T00:17:03;8.15;;;3.75;;
74793;SDS011;63320;50.768;6.724;2023-05-07T00:19:30;7.95;;;3.60;;
74793;SDS011;63320;50.768;6.724;2023-05-07T00:21:55;8.00;;;3.70;;
74793;SDS011;63320;50.768;6.724;2023-05-07T00:24:20;7.18;;;3.40;;
74793;SDS011;63320;50.768;6.724;2023-05-07T00:26:46;6.63;;;3.53;;
74793;SDS011;63320;50.768;6.724;2023-05-07T00:29:11;6.38;;;3.08;;
74793;SDS011;63320;50.768;6.724;2023-05-07T00:31:36;5.00;;;2.92;;
74793;SDS011;63320;50.768;6.724;2023-05-07T00:34:02;4.90;;;2.72;;
74793;SDS011;63320;50.768;6.724;2023-05-07T00:36:29;5.07;;;2.63;;
74793;SDS011;63320;50.768;6.724;2023-05-07T00:38:54;6.30;;;2.72;;
74793;SDS011;63320;50.768;6.724;2023-05-07T00:41:19;5.95;;;2.90;;
74793;SDS011;63320;50.768;6.724;2023-05-07T00:43:45;6.65;;;2.78;;
74793;SDS011;63320;50.768;6.724;2023-05-07T00:46:10;5.93;;;2.83;;
74793;SDS011;63320;50.768;6.724;2023-05-07T00:48:36;8.98;;;3.25;;
74793;SDS011;63320;50.768;6.724;2023-05-07T00:51:01;5.57;;;2.63;;
74793;SDS011;63320;50.768;6.724;2023-05-07T00:53:28;5.38;;;2.83;;
74793;SDS011;63320;50.768;6.724;2023-05-07T00:55:53;6.85;;;3.10;;
74793;SDS011;63320;50.768;6.724;2023-05-07T00:58:19;6.35;;;3.00;;
74793;SDS011;63320;50.768;6.724;2023-05-07T01:00:44;5.85;;;3.00;;
74793;SDS011;63320;50.768;6.724;2023-05-07T01:03:10;6.28;;;3.40;;
74793;SDS011;63320;50.768;6.724;2023-05-07T01:05:35;6.47;;;3.40;;
74793;SDS011;63320;50.768;6.724;2023-05-07T01:08:01;9.30;;;3.90;;
74793;SDS011;63320;50.768;6.724;2023-05-07T01:10:28;6.90;;;4.03;;
74793;SDS011;63320;50.768;6.724;2023-05-07T01:12:54;8.88;;;3.97;;
74793;SDS011;63320;50.768;6.724;2023-05-07T01:15:20;7.22;;;4.15;;
74793;SDS011;63320;50.768;6.724;2023-05-07T01:17:45;6.95;;;4.30;;
74793;SDS011;63320;50.768;6.724;2023-05-07T01:20:11;7.07;;;4.47;;
74793;SDS011;63320;50.768;6.724;2023-05-07T01:22:38;9.30;;;5.10;;
74793;SDS011;63320;50.768;6.724;2023-05-07T01:25:03;9.68;;;6.22;;
74793;SDS011;63320;50.768;6.724;2023-05-07T01:27:29;9.18;;;6.05;;
74793;SDS011;63320;50.768;6.724;2023-05-07T01:29:55;9.35;;;6.50;;
74793;SDS011;63320;50.768;6.724;2023-05-07T01:32:21;8.40;;;6.20;;
74793;SDS011;63320;50.768;6.724;2023-05-07T01:34:53;8.85;;;6.68;;
74793;SDS011;63320;50.768;6.724;2023-05-07T01:37:20;10.80;;;6.85;;
74793;SDS011;63320;50.768;6.724;2023-05-07T01:39:47;10.82;;;7.10;;
74793;SDS011;63320;50.768;6.724;2023-05-07T01:42:13;10.75;;;7.20;;
74793;SDS011;63320;50.768;6.724;2023-05-07T01:44:38;10.55;;;7.18;;
74793;SDS011;63320;50.768;6.724;2023-05-07T01:47:04;8.10;;;6.40;;
74793;SDS011;63320;50.768;6.724;2023-05-07T01:49:30;10.35;;;7.03;;
74793;SDS011;63320;50.768;6.724;2023-05-07T01:51:55;10.52;;;7.07;;
74793;SDS011;63320;50.768;6.724;2023-05-07T01:54:24;11.32;;;7.47;;
74793;SDS011;63320;50.768;6.724;2023-05-07T01:56:51;11.48;;;6.55;;
74793;SDS011;63320;50.768;6.724;2023-05-07T01:59:17;10.18;;;6.65;;
74793;SDS011;63320;50.768;6.724;2023-05-07T02:01:42;9.15;;;6.65;;
74793;SDS011;63320;50.768;6.724;2023-05-07T02:04:07;10.30;;;6.55;;
74793;SDS011;63320;50.768;6.724;2023-05-07T02:06:33;8.82;;;6.18;;
74793;SDS011;63320;50.768;6.724;2023-05-07T02:08:58;10.38;;;5.78;;
74793;SDS011;63320;50.768;6.724;2023-05-07T02:11:23;9.95;;;5.30;;
74793;SDS011;63320;50.768;6.724;2023-05-07T02:13:50;9.35;;;5.43;;
74793;SDS011;63320;50.768;6.724;2023-05-07T02:16:15;8.15;;;5.43;;
74793;SDS011;63320;50.768;6.724;2023-05-07T02:18:41;8.52;;;5.40;;
74793;SDS011;63320;50.768;6.724;2023-05-07T02:21:06;9.45;;;4.93;;
74793;SDS011;63320;50.768;6.724;2023-05-07T02:23:31;10.43;;;4.75;;
74793;SDS011;63320;50.768;6.724;2023-05-07T02:25:57;8.32;;;5.28;;
74793;SDS011;63320;50.768;6.724;2023-05-07T02:28:22;9.02;;;4.47;;
74793;SDS011;63320;50.768;6.724;2023-05-07T02:30:49;7.93;;;4.32;;
74793;SDS011;63320;50.768;6.724;2023-05-07T02:33:14;7.00;;;4.30;;
74793;SDS011;63320;50.768;6.724;2023-05-07T02:35:39;8.60;;;4.80;;
74793;SDS011;63320;50.768;6.724;2023-05-07T02:38:05;7.07;;;4.43;;
74793;SDS011;63320;50.768;6.724;2023-05-07T02:40:30;7.78;;;4.22;;
74793;SDS011;63320;50.768;6.724;2023-05-07T02:42:55;6.38;;;3.95;;
74793;SDS011;63320;50.768;6.724;2023-05-07T02:45:21;7.38;;;4.55;;
74793;SDS011;63320;50.768;6.724;2023-05-07T02:47:47;6.65;;;4.20;;
74793;SDS011;63320;50.768;6.724;2023-05-07T02:50:13;8.18;;;4.28;;
74793;SDS011;63320;50.768;6.724;2023-05-07T02:52:38;8.48;;;4.30;;
74793;SDS011;63320;50.768;6.724;2023-05-07T02:55:04;9.18;;;4.50;;
74793;SDS011;63320;50.768;6.724;2023-05-07T02:57:30;7.15;;;4.03;;
74793;SDS011;63320;50.768;6.724;2023-05-07T02:59:55;9.15;;;4.13;;
74793;SDS011;63320;50.768;6.724;2023-05-07T03:02:22;6.03;;;3.92;;
74793;SDS011;63320;50.768;6.724;2023-05-07T03:04:49;8.68;;;4.25;;
74793;SDS011;63320;50.768;6.724;2023-05-07T03:07:14;6.07;;;3.45;;
74793;SDS011;63320;50.768;6.724;2023-05-07T03:09:40;6.85;;;3.58;;
74793;SDS011;63320;50.768;6.724;2023-05-07T03:12:05;7.97;;;3.45;;
74793;SDS011;63320;50.768;6.724;2023-05-07T03:14:31;6.75;;;3.30;;
74793;SDS011;63320;50.768;6.724;2023-05-07T03:16:56;7.32;;;3.95;;
74793;SDS011;63320;50.768;6.724;2023-05-07T03:19:21;8.95;;;3.95;;
74793;SDS011;63320;50.768;6.724;2023-05-07T03:21:48;8.98;;;4.35;;
74793;SDS011;63320;50.768;6.724;2023-05-07T03:24:13;6.13;;;4.10;;
74793;SDS011;63320;50.768;6.724;2023-05-07T03:26:39;7.35;;;4.10;;
74793;SDS011;63320;50.768;6.724;2023-05-07T03:29:04;7.07;;;3.75;;
74793;SDS011;63320;50.768;6.724;2023-05-07T03:31:29;6.40;;;3.75;;
74793;SDS011;63320;50.768;6.724;2023-05-07T03:33:55;6.15;;;3.70;;
74793;SDS011;63320;50.768;6.724;2023-05-07T03:36:22;8.30;;;3.90;;
74793;SDS011;63320;50.768;6.724;2023-05-07T03:38:49;6.68;;;3.70;;
74793;SDS011;63320;50.768;6.724;2023-05-07T03:41:15;6.80;;;3.45;;
74793;SDS011;63320;50.768;6.724;2023-05-07T03:43:40;6.35;;;3.50;;
74793;SDS011;63320;50.768;6.724;2023-05-07T03:46:06;5.85;;;3.65;;
74793;SDS011;63320;50.768;6.724;2023-05-07T03:48:31;6.45;;;3.67;;
74793;SDS011;63320;50.768;6.724;2023-05-07T03:50:57;6.13;;;3.40;;
74793;SDS011;63320;50.768;6.724;2023-05-07T03:53:23;5.93;;;3.40;;
74793;SDS011;63320;50.768;6.724;2023-05-07T03:55:49;8.05;;;4.22;;
74793;SDS011;63320;50.768;6.724;2023-05-07T03:58:15;6.90;;;3.65;;
74793;SDS011;63320;50.768;6.724;2023-05-07T04:00:40;9.15;;;3.70;;
74793;SDS011;63320;50.768;6.724;2023-05-07T04:03:06;5.55;;;3.40;;
74793;SDS011;63320;50.768;6.724;2023-05-07T04:05:31;6.43;;;3.90;;
74793;SDS011;63320;50.768;6.724;2023-05-07T04:07:57;7.45;;;3.85;;
74793;SDS011;63320;50.768;6.724;2023-05-07T04:10:23;10.05;;;3.50;;
74793;SDS011;63320;50.768;6.724;2023-05-07T04:12:49;5.97;;;3.72;;
74793;SDS011;63320;50.768;6.724;2023-05-07T04:15:15;8.75;;;4.00;;
74793;SDS011;63320;50.768;6.724;2023-05-07T04:17:40;5.82;;;3.95;;
74793;SDS011;63320;50.768;6.724;2023-05-07T04:20:06;6.60;;;3.78;;
74793;SDS011;63320;50.768;6.724;2023-05-07T04:22:33;6.18;;;3.25;;
74793;SDS011;63320;50.768;6.724;2023-05-07T04:24:58;5.38;;;3.33;;
74793;SDS011;63320;50.768;6.724;2023-05-07T04:27:24;6.60;;;3.70;;
74793;SDS011;63320;50.768;6.724;2023-05-07T04:29:50;6.32;;;3.40;;
74793;SDS011;63320;50.768;6.724;2023-05-07T04:32:16;6.25;;;3.65;;
74793;SDS011;63320;50.768;6.724;2023-05-07T04:34:41;6.03;;;3.60;;
74793;SDS011;63320;50.768;6.724;2023-05-07T04:37:06;6.43;;;3.88;;
74793;SDS011;63320;50.768;6.724;2023-05-07T04:39:32;6.63;;;3.83;;
74793;SDS011;63320;50.768;6.724;2023-05-07T04:41:57;8.25;;;4.20;;
74793;SDS011;63320;50.768;6.724;2023-05-07T04:44:22;8.38;;;3.53;;
74793;SDS011;63320;50.768;6.724;2023-05-07T04:46:49;6.22;;;3.40;;
74793;SDS011;63320;50.768;6.724;2023-05-07T04:49:14;7.38;;;3.80;;
74793;SDS011;63320;50.768;6.724;2023-05-07T04:51:40;6.13;;;3.40;;
74793;SDS011;63320;50.768;6.724;2023-05-07T04:54:05;8.43;;;3.33;;
74793;SDS011;63320;50.768;6.724;2023-05-07T04:56:30;8.45;;;3.42;;
74793;SDS011;63320;50.768;6.724;2023-05-07T04:58:56;6.05;;;3.63;;
74793;SDS011;63320;50.768;6.724;2023-05-07T05:01:21;6.38;;;3.63;;
74793;SDS011;63320;50.768;6.724;2023-05-07T05:03:48;7.10;;;4.00;;
74793;SDS011;63320;50.768;6.724;2023-05-07T05:06:13;4.88;;;3.10;;
74793;SDS011;63320;50.768;6.724;2023-05-07T05:08:38;6.45;;;3.17;;
74793;SDS011;63320;50.768;6.724;2023-05-07T05:11:04;5.47;;;2.83;;
74793;SDS011;63320;50.768;6.724;2023-05-07T05:13:29;6.18;;;3.03;;
74793;SDS011;63320;50.768;6.724;2023-05-07T05:15:54;5.53;;;2.72;;
74793;SDS011;63320;50.768;6.724;2023-05-07T05:18:20;5.70;;;2.78;;
74793;SDS011;63320;50.768;6.724;2023-05-07T05:20:46;6.13;;;2.53;;
74793;SDS011;63320;50.768;6.724;2023-05-07T05:23:12;6.68;;;2.53;;
74793;SDS011;63320;50.768;6.724;2023-05-07T05:25:37;5.57;;;2.60;;
74793;SDS011;63320;50.768;6.724;2023-05-07T05:28:02;4.13;;;2.13;;
74793;SDS011;63320;50.768;6.724;2023-05-07T05:30:28;4.30;;;2.30;;
74793;SDS011;63320;50.768;6.724;2023-05-07T05:32:53;6.32;;;2.50;;
74793;SDS011;63320;50.768;6.724;2023-05-07T05:35:19;7.90;;;2.53;;
74793;SDS011;63320;50.768;6.724;2023-05-07T05:37:45;5.15;;;2.45;;
74793;SDS011;63320;50.768;6.724;2023-05-07T05:40:11;4.68;;;2.70;;
74793;SDS011;63320;50.768;6.724;2023-05-07T05:42:37;5.55;;;2.60;;
74793;SDS011;63320;50.768;6.724;2023-05-07T05:45:02;5.32;;;2.65;;
74793;SDS011;63320;50.768;6.724;2023-05-07T05:47:29;4.93;;;2.65;;
74793;SDS011;63320;50.768;6.724;2023-05-07T05:49:54;4.78;;;2.63;;
74793;SDS011;63320;50.768;6.724;2023-05-07T05:52:19;5.20;;;2.88;;
74793;SDS011;63320;50.768;6.724;2023-05-07T05:54:46;4.63;;;2.63;;
74793;SDS011;63320;50.768;6.724;2023-05-07T05:57:11;6.00;;;3.08;;
74793;SDS011;63320;50.768;6.724;2023-05-07T05:59:37;7.25;;;3.10;;
74793;SDS011;63320;50.768;6.724;2023-05-07T06:02:02;6.40;;;2.85;;
74793;SDS011;63320;50.768;6.724;2023-05-07T06:04:27;5.75;;;3.10;;
74793;SDS011;63320;50.768;6.724;2023-05-07T06:06:53;7.32;;;3.25;;
74793;SDS011;63320;50.768;6.724;2023-05-07T06:09:18;5.90;;;3.40;;
74793;SDS011;63320;50.768;6.724;2023-05-07T06:11:45;5.80;;;3.10;;
74793;SDS011;63320;50.768;6.724;2023-05-07T06:14:10;6.55;;;3.42;;
74793;SDS011;63320;50.768;6.724;2023-05-07T06:16:35;5.28;;;3.30;;
74793;SDS011;63320;50.768;6.724;2023-05-07T06:19:01;6.32;;;3.45;;
74793;SDS011;63320;50.768;6.724;2023-05-07T06:21:26;7.10;;;3.10;;
74793;SDS011;63320;50.768;6.724;2023-05-07T06:23:51;7.47;;;3.40;;
74793;SDS011;63320;50.768;6.724;2023-05-07T06:26:17;6.13;;;3.33;;
74793;SDS011;63320;50.768;6.724;2023-05-07T06:28:43;6.05;;;3.10;;
74793;SDS011;63320;50.768;6.724;2023-05-07T06:31:12;5.82;;;3.17;;
74793;SDS011;63320;50.768;6.724;2023-05-07T06:33:39;6.38;;;2.80;;
74793;SDS011;63320;50.768;6.724;2023-05-07T06:36:04;6.50;;;3.45;;
74793;SDS011;63320;50.768;6.724;2023-05-07T06:38:30;8.20;;;4.13;;
74793;SDS011;63320;50.768;6.724;2023-05-07T06:40:56;6.82;;;4.50;;
74793;SDS011;63320;50.768;6.724;2023-05-07T06:43:21;7.03;;;4.22;;
74793;SDS011;63320;50.768;6.724;2023-05-07T06:45:48;7.00;;;4.03;;
74793;SDS011;63320;50.768;6.724;2023-05-07T06:48:13;5.43;;;3.10;;
74793;SDS011;63320;50.768;6.724;2023-05-07T06:50:38;5.53;;;2.85;;
74793;SDS011;63320;50.768;6.724;2023-05-07T06:53:04;4.93;;;2.85;;
74793;SDS011;63320;50.768;6.724;2023-05-07T06:55:29;7.65;;;2.63;;
74793;SDS011;63320;50.768;6.724;2023-05-07T06:57:55;7.65;;;3.58;;
74793;SDS011;63320;50.768;6.724;2023-05-07T07:00:20;6.70;;;2.85;;
74793;SDS011;63320;50.768;6.724;2023-05-07T07:02:47;5.28;;;3.15;;
74793;SDS011;63320;50.768;6.724;2023-05-07T07:05:12;5.22;;;2.50;;
74793;SDS011;63320;50.768;6.724;2023-05-07T07:07:37;5.50;;;2.45;;
74793;SDS011;63320;50.768;6.724;2023-05-07T07:10:03;6.07;;;2.83;;
74793;SDS011;63320;50.768;6.724;2023-05-07T07:12:29;7.25;;;3.80;;
74793;SDS011;63320;50.768;6.724;2023-05-07T07:14:54;7.05;;;3.20;;
74793;SDS011;63320;50.768;6.724;2023-05-07T07:17:19;5.18;;;2.45;;
74793;SDS011;63320;50.768;6.724;2023-05-07T07:19:46;7.15;;;3.78;;
74793;SDS011;63320;50.768;6.724;2023-05-07T07:22:11;5.82;;;2.58;;
74793;SDS011;63320;50.768;6.724;2023-05-07T07:24:37;6.00;;;3.47;;
74793;SDS011;63320;50.768;6.724;2023-05-07T07:27:02;5.85;;;3.33;;
74793;SDS011;63320;50.768;6.724;2023-05-07T07:29:27;5.70;;;3.53;;
74793;SDS011;63320;50.768;6.724;2023-05-07T07:31:53;6.35;;;3.55;;
74793;SDS011;63320;50.768;6.724;2023-05-07T07:34:18;7.13;;;3.80;;
74793;SDS011;63320;50.768;6.724;2023-05-07T07:36:45;7.97;;;3.50;;
74793;SDS011;63320;50.768;6.724;2023-05-07T07:39:10;7.38;;;3.30;;
74793;SDS011;63320;50.768;6.724;2023-05-07T07:41:35;6.93;;;3.60;;
74793;SDS011;63320;50.768;6.724;2023-05-07T07:44:01;6.88;;;3.40;;
74793;SDS011;63320;50.768;6.724;2023-05-07T07:46:27;7.22;;;2.85;;
74793;SDS011;63320;50.768;6.724;2023-05-07T07:48:52;6.75;;;3.30;;
74793;SDS011;63320;50.768;6.724;2023-05-07T07:51:18;7.90;;;3.67;;
74793;SDS011;63320;50.768;6.724;2023-05-07T07:53:44;6.80;;;3.33;;
74793;SDS011;63320;50.768;6.724;2023-05-07T07:56:10;6.95;;;3.40;;
74793;SDS011;63320;50.768;6.724;2023-05-07T07:58:35;7.15;;;3.80;;
74793;SDS011;63320;50.768;6.724;2023-05-07T08:01:00;6.40;;;3.10;;
74793;SDS011;63320;50.768;6.724;2023-05-07T08:03:26;6.40;;;3.05;;
74793;SDS011;63320;50.768;6.724;2023-05-07T08:05:51;7.97;;;2.33;;
74793;SDS011;63320;50.768;6.724;2023-05-07T08:08:16;5.22;;;1.92;;
74793;SDS011;63320;50.768;6.724;2023-05-07T08:10:43;4.18;;;1.80;;
74793;SDS011;63320;50.768;6.724;2023-05-07T08:13:08;4.97;;;2.20;;
74793;SDS011;63320;50.768;6.724;2023-05-07T08:15:34;5.25;;;2.03;;
74793;SDS011;63320;50.768;6.724;2023-05-07T08:17:59;5.85;;;2.20;;
74793;SDS011;63320;50.768;6.724;2023-05-07T08:20:26;4.55;;;2.25;;
74793;SDS011;63320;50.768;6.724;2023-05-07T08:22:51;4.97;;;2.03;;
74793;SDS011;63320;50.768;6.724;2023-05-07T08:25:16;6.68;;;2.42;;
74793;SDS011;63320;50.768;6.724;2023-05-07T08:27:43;4.72;;;2.10;;
74793;SDS011;63320;50.768;6.724;2023-05-07T08:30:09;5.68;;;2.30;;
74793;SDS011;63320;50.768;6.724;2023-05-07T08:32:35;6.57;;;2.20;;
74793;SDS011;63320;50.768;6.724;2023-05-07T08:35:00;6.07;;;1.80;;
74793;SDS011;63320;50.768;6.724;2023-05-07T08:37:25;4.28;;;2.05;;
74793;SDS011;63320;50.768;6.724;2023-05-07T08:39:50;5.30;;;2.83;;
74793;SDS011;63320;50.768;6.724;2023-05-07T08:42:16;7.95;;;2.65;;
74793;SDS011;63320;50.768;6.724;2023-05-07T08:44:44;6.43;;;2.92;;
74793;SDS011;63320;50.768;6.724;2023-05-07T08:47:10;8.32;;;3.30;;
74793;SDS011;63320;50.768;6.724;2023-05-07T08:49:36;7.20;;;3.05;;
74793;SDS011;63320;50.768;6.724;2023-05-07T08:52:01;6.78;;;2.92;;
74793;SDS011;63320;50.768;6.724;2023-05-07T08:54:27;7.45;;;3.33;;
74793;SDS011;63320;50.768;6.724;2023-05-07T08:56:53;5.93;;;3.50;;
74793;SDS011;63320;50.768;6.724;2023-05-07T08:59:18;6.47;;;2.58;;
74793;SDS011;63320;50.768;6.724;2023-05-07T09:01:45;4.68;;;2.00;;
74793;SDS011;63320;50.768;6.724;2023-05-07T09:04:10;4.55;;;1.83;;
74793;SDS011;63320;50.768;6.724;2023-05-07T09:06:35;6.68;;;2.00;;
74793;SDS011;63320;50.768;6.724;2023-05-07T09:09:01;5.70;;;1.67;;
74793;SDS011;63320;50.768;6.724;2023-05-07T09:11:26;5.25;;;1.92;;
74793;SDS011;63320;50.768;6.724;2023-05-07T09:13:53;5.55;;;2.13;;
74793;SDS011;63320;50.768;6.724;2023-05-07T09:16:20;4.82;;;1.90;;
74793;SDS011;63320;50.768;6.724;2023-05-07T09:18:48;4.57;;;1.85;;
74793;SDS011;63320;50.768;6.724;2023-05-07T09:21:17;4.57;;;1.85;;
74793;SDS011;63320;50.768;6.724;2023-05-07T09:23:42;5.75;;;2.08;;
74793;SDS011;63320;50.768;6.724;2023-05-07T09:26:08;4.97;;;1.83;;
74793;SDS011;63320;50.768;6.724;2023-05-07T09:28:33;4.63;;;1.92;;
74793;SDS011;63320;50.768;6.724;2023-05-07T09:30:59;5.35;;;2.40;;
74793;SDS011;63320;50.768;6.724;2023-05-07T09:33:26;6.40;;;2.30;;
74793;SDS011;63320;50.768;6.724;2023-05-07T09:35:53;6.15;;;2.45;;
74793;SDS011;63320;50.768;6.724;2023-05-07T09:38:19;4.70;;;2.05;;
74793;SDS011;63320;50.768;6.724;2023-05-07T09:40:46;5.55;;;2.08;;
74793;SDS011;63320;50.768;6.724;2023-05-07T09:43:12;6.22;;;2.10;;
74793;SDS011;63320;50.768;6.724;2023-05-07T09:45:38;3.83;;;1.75;;
74793;SDS011;63320;50.768;6.724;2023-05-07T09:48:04;6.38;;;2.10;;
74793;SDS011;63320;50.768;6.724;2023-05-07T09:50:32;5.03;;;2.05;;
74793;SDS011;63320;50.768;6.724;2023-05-07T09:53:08;5.65;;;1.98;;
74793;SDS011;63320;50.768;6.724;2023-05-07T09:55:35;6.43;;;2.13;;
74793;SDS011;63320;50.768;6.724;2023-05-07T09:58:01;7.70;;;2.78;;
74793;SDS011;63320;50.768;6.724;2023-05-07T10:00:29;5.90;;;2.20;;
74793;SDS011;63320;50.768;6.724;2023-05-07T10:02:56;5.47;;;2.10;;
74793;SDS011;63320;50.768;6.724;2023-05-07T10:05:22;4.85;;;1.95;;
74793;SDS011;63320;50.768;6.724;2023-05-07T10:07:48;4.75;;;2.13;;
74793;SDS011;63320;50.768;6.724;2023-05-07T10:10:15;5.30;;;1.95;;
74793;SDS011;63320;50.768;6.724;2023-05-07T10:12:40;4.18;;;1.70;;
74793;SDS011;63320;50.768;6.724;2023-05-07T10:15:07;5.68;;;2.17;;
74793;SDS011;63320;50.768;6.724;2023-05-07T10:17:33;4.28;;;1.73;;
74793;SDS011;63320;50.768;6.724;2023-05-07T10:20:00;5.30;;;1.92;;
74793;SDS011;63320;50.768;6.724;2023-05-07T10:22:25;5.45;;;1.77;;
74793;SDS011;63320;50.768;6.724;2023-05-07T10:24:52;4.40;;;2.00;;
74793;SDS011;63320;50.768;6.724;2023-05-07T10:27:19;3.50;;;1.30;;
74793;SDS011;63320;50.768;6.724;2023-05-07T10:29:49;3.00;;;1.35;;
74793;SDS011;63320;50.768;6.724;2023-05-07T10:35:02;5.45;;;1.65;;
74793;SDS011;63320;50.768;6.724;2023-05-07T10:37:31;5.35;;;1.90;;
74793;SDS011;63320;50.768;6.724;2023-05-07T10:39:57;5.45;;;1.98;;
74793;SDS011;63320;50.768;6.724;2023-05-07T10:42:24;4.50;;;1.95;;
74793;SDS011;63320;50.768;6.724;2023-05-07T10:44:50;6.18;;;2.30;;
74793;SDS011;63320;50.768;6.724;2023-05-07T10:47:16;5.10;;;2.20;;
74793;SDS011;63320;50.768;6.724;2023-05-07T10:52:46;5.10;;;1.83;;
74793;SDS011;63320;50.768;6.724;2023-05-07T10:55:48;6.85;;;2.13;;
74793;SDS011;63320;50.768;6.724;2023-05-07T10:58:24;7.32;;;2.40;;
74793;SDS011;63320;50.768;6.724;2023-05-07T11:00:56;6.43;;;2.13;;
74793;SDS011;63320;50.768;6.724;2023-05-07T11:03:22;4.57;;;2.00;;
74793;SDS011;63320;50.768;6.724;2023-05-07T11:05:48;5.80;;;1.77;;
74793;SDS011;63320;50.768;6.724;2023-05-07T11:11:18;6.32;;;2.30;;
74793;SDS011;63320;50.768;6.724;2023-05-07T11:13:45;6.88;;;2.42;;
74793;SDS011;63320;50.768;6.724;2023-05-07T11:16:18;6.20;;;1.88;;
74793;SDS011;63320;50.768;6.724;2023-05-07T11:18:47;6.00;;;2.03;;
74793;SDS011;63320;50.768;6.724;2023-05-07T11:21:16;5.38;;;2.00;;
74793;SDS011;63320;50.768;6.724;2023-05-07T11:24:00;5.90;;;1.90;;
74793;SDS011;63320;50.768;6.724;2023-05-07T11:26:27;5.10;;;1.70;;
74793;SDS011;63320;50.768;6.724;2023-05-07T11:28:55;5.80;;;2.10;;
74793;SDS011;63320;50.768;6.724;2023-05-07T11:31:21;4.53;;;1.67;;
74793;SDS011;63320;50.768;6.724;2023-05-07T11:33:47;6.38;;;2.13;;
74793;SDS011;63320;50.768;6.724;2023-05-07T11:36:13;5.85;;;1.98;;
74793;SDS011;63320;50.768;6.724;2023-05-07T11:38:38;4.75;;;2.00;;
74793;SDS011;63320;50.768;6.724;2023-05-07T11:41:04;4.55;;;2.20;;
74793;SDS011;63320;50.768;6.724;2023-05-07T11:43:29;5.03;;;1.95;;
74793;SDS011;63320;50.768;6.724;2023-05-07T11:46:04;4.63;;;2.00;;
74793;SDS011;63320;50.768;6.724;2023-05-07T11:48:30;6.07;;;1.80;;
74793;SDS011;63320;50.768;6.724;2023-05-07T11:50:59;4.40;;;1.80;;
74793;SDS011;63320;50.768;6.724;2023-05-07T11:53:26;3.63;;;1.70;;
74793;SDS011;63320;50.768;6.724;2023-05-07T11:55:52;4.43;;;1.77;;
74793;SDS011;63320;50.768;6.724;2023-05-07T11:58:20;4.07;;;1.98;;
74793;SDS011;63320;50.768;6.724;2023-05-07T12:00:50;5.85;;;2.22;;
74793;SDS011;63320;50.768;6.724;2023-05-07T12:03:17;4.65;;;2.25;;
74793;SDS011;63320;50.768;6.724;2023-05-07T12:05:43;4.70;;;2.30;;
74793;SDS011;63320;50.768;6.724;2023-05-07T12:08:09;5.43;;;2.35;;
74793;SDS011;63320;50.768;6.724;2023-05-07T12:10:40;6.60;;;2.22;;
74793;SDS011;63320;50.768;6.724;2023-05-07T12:13:13;5.30;;;2.60;;
74793;SDS011;63320;50.768;6.724;2023-05-07T12:15:39;6.32;;;2.80;;
74793;SDS011;63320;50.768;6.724;2023-05-07T12:18:04;5.95;;;2.40;;
74793;SDS011;63320;50.768;6.724;2023-05-07T12:20:31;5.47;;;2.72;;
74793;SDS011;63320;50.768;6.724;2023-05-07T12:22:57;7.18;;;2.50;;
74793;SDS011;63320;50.768;6.724;2023-05-07T12:25:23;6.70;;;2.60;;
74793;SDS011;63320;50.768;6.724;2023-05-07T12:27:51;4.32;;;2.38;;
74793;SDS011;63320;50.768;6.724;2023-05-07T12:30:17;9.40;;;2.75;;
74793;SDS011;63320;50.768;6.724;2023-05-07T12:32:43;6.13;;;2.20;;
74793;SDS011;63320;50.768;6.724;2023-05-07T12:35:10;5.20;;;2.70;;
74793;SDS011;63320;50.768;6.724;2023-05-07T12:37:37;5.28;;;2.42;;
74793;SDS011;63320;50.768;6.724;2023-05-07T12:40:05;5.82;;;2.45;;
74793;SDS011;63320;50.768;6.724;2023-05-07T12:44:57;7.53;;;3.42;;
74793;SDS011;63320;50.768;6.724;2023-05-07T12:47:23;6.97;;;3.42;;
74793;SDS011;63320;50.768;6.724;2023-05-07T12:49:48;8.05;;;3.40;;
74793;SDS011;63320;50.768;6.724;2023-05-07T12:52:13;7.53;;;3.78;;
74793;SDS011;63320;50.768;6.724;2023-05-07T12:54:40;8.02;;;3.90;;
74793;SDS011;63320;50.768;6.724;2023-05-07T12:57:07;6.47;;;3.75;;
74793;SDS011;63320;50.768;6.724;2023-05-07T12:59:33;8.27;;;4.60;;
74793;SDS011;63320;50.768;6.724;2023-05-07T13:01:59;7.82;;;4.95;;
74793;SDS011;63320;50.768;6.724;2023-05-07T13:04:24;8.25;;;5.20;;
74793;SDS011;63320;50.768;6.724;2023-05-07T13:06:50;11.70;;;5.82;;
74793;SDS011;63320;50.768;6.724;2023-05-07T13:09:15;12.60;;;6.03;;
74793;SDS011;63320;50.768;6.724;2023-05-07T13:11:42;10.25;;;6.03;;
74793;SDS011;63320;50.768;6.724;2023-05-07T13:14:07;10.18;;;6.35;;
74793;SDS011;63320;50.768;6.724;2023-05-07T13:16:32;8.25;;;5.68;;
74793;SDS011;63320;50.768;6.724;2023-05-07T13:18:58;9.27;;;6.68;;
74793;SDS011;63320;50.768;6.724;2023-05-07T13:21:23;13.50;;;7.55;;
74793;SDS011;63320;50.768;6.724;2023-05-07T13:23:49;9.85;;;7.20;;
74793;SDS011;63320;50.768;6.724;2023-05-07T13:26:14;12.40;;;7.55;;
74793;SDS011;63320;50.768;6.724;2023-05-07T13:28:41;11.68;;;7.38;;
74793;SDS011;63320;50.768;6.724;2023-05-07T13:31:06;11.70;;;6.55;;
74793;SDS011;63320;50.768;6.724;2023-05-07T13:33:31;12.20;;;6.72;;
74793;SDS011;63320;50.768;6.724;2023-05-07T13:35:57;9.43;;;6.40;;
74793;SDS011;63320;50.768;6.724;2023-05-07T13:38:22;10.30;;;6.20;;
74793;SDS011;63320;50.768;6.724;2023-05-07T13:40:47;11.57;;;5.93;;
74793;SDS011;63320;50.768;6.724;2023-05-07T13:43:13;11.15;;;6.40;;
74793;SDS011;63320;50.768;6.724;2023-05-07T13:45:39;9.15;;;5.53;;
74793;SDS011;63320;50.768;6.724;2023-05-07T13:48:05;10.68;;;5.90;;
74793;SDS011;63320;50.768;6.724;2023-05-07T13:50:30;9.90;;;5.65;;
74793;SDS011;63320;50.768;6.724;2023-05-07T13:52:56;8.68;;;5.32;;
74793;SDS011;63320;50.768;6.724;2023-05-07T13:55:21;10.18;;;5.10;;
74793;SDS011;63320;50.768;6.724;2023-05-07T13:57:47;8.68;;;5.40;;
74793;SDS011;63320;50.768;6.724;2023-05-07T14:00:19;10.68;;;5.63;;
74793;SDS011;63320;50.768;6.724;2023-05-07T14:02:45;12.13;;;7.90;;
74793;SDS011;63320;50.768;6.724;2023-05-07T14:05:11;12.90;;;8.35;;
74793;SDS011;63320;50.768;6.724;2023-05-07T14:07:36;12.95;;;8.88;;
74793;SDS011;63320;50.768;6.724;2023-05-07T14:10:01;12.57;;;7.85;;
74793;SDS011;63320;50.768;6.724;2023-05-07T14:12:27;9.43;;;6.13;;
74793;SDS011;63320;50.768;6.724;2023-05-07T14:14:52;11.07;;;7.15;;
74793;SDS011;63320;50.768;6.724;2023-05-07T14:17:18;9.73;;;5.70;;
74793;SDS011;63320;50.768;6.724;2023-05-07T14:19:44;8.40;;;6.18;;
74793;SDS011;63320;50.768;6.724;2023-05-07T14:22:10;9.55;;;6.20;;
74793;SDS011;63320;50.768;6.724;2023-05-07T14:24:35;9.65;;;6.22;;
74793;SDS011;63320;50.768;6.724;2023-05-07T14:27:00;10.30;;;6.20;;
74793;SDS011;63320;50.768;6.724;2023-05-07T14:29:26;7.20;;;4.03;;
74793;SDS011;63320;50.768;6.724;2023-05-07T14:31:51;8.15;;;3.70;;
74793;SDS011;63320;50.768;6.724;2023-05-07T14:34:16;8.27;;;4.30;;
74793;SDS011;63320;50.768;6.724;2023-05-07T14:36:43;6.15;;;3.92;;
74793;SDS011;63320;50.768;6.724;2023-05-07T14:39:09;8.60;;;4.10;;
74793;SDS011;63320;50.768;6.724;2023-05-07T14:41:34;6.00;;;3.38;;
74793;SDS011;63320;50.768;6.724;2023-05-07T14:43:59;5.93;;;2.83;;
74793;SDS011;63320;50.768;6.724;2023-05-07T14:46:25;5.63;;;2.90;;
74793;SDS011;63320;50.768;6.724;2023-05-07T14:48:50;6.20;;;2.97;;